createdAt,value
2022-11-30T00:01:36.070Z,-2.72
2022-11-30T00:04:04.121Z,-2.70
2022-11-30T00:06:32.099Z,-2.65
2022-11-30T00:09:00.253Z,-2.62
2022-11-30T00:11:28.705Z,-2.57
2022-11-30T00:13:58.919Z,-2.51
2022-11-30T00:16:27.684Z,-2.48
2022-11-30T00:18:55.826Z,-2.44
2022-11-30T00:21:26.158Z,-2.44
2022-11-30T00:23:55.162Z,-2.43
2022-11-30T00:26:23.359Z,-2.46
2022-11-30T00:28:51.994Z,-2.49
2022-11-30T00:31:21.087Z,-2.52
2022-11-30T00:33:49.208Z,-2.53
2022-11-30T00:36:22.092Z,-2.53
2022-11-30T00:38:52.011Z,-2.52
2022-11-30T00:41:21.306Z,-2.50
2022-11-30T00:43:49.216Z,-2.50
2022-11-30T00:46:17.423Z,-2.49
2022-11-30T00:48:45.645Z,-2.49
2022-11-30T00:51:14.384Z,-2.52
2022-11-30T00:53:42.696Z,-2.56
2022-11-30T00:56:11.305Z,-2.60
2022-11-30T00:58:40.166Z,-2.64
2022-11-30T01:01:08.782Z,-2.70
2022-11-30T01:03:37.889Z,-2.74
2022-11-30T01:06:08.323Z,-2.77
2022-11-30T01:08:37.354Z,-2.79
2022-11-30T01:11:14.880Z,-2.80
2022-11-30T01:13:42.848Z,-2.80
2022-11-30T01:16:15.680Z,-2.81
2022-11-30T01:18:44.559Z,-2.80
2022-11-30T01:21:16.389Z,-2.81
2022-11-30T01:23:45.468Z,-2.83
2022-11-30T01:26:14.794Z,-2.86
2022-11-30T01:28:44.297Z,-2.89
2022-11-30T01:31:14.657Z,-2.92
2022-11-30T01:33:43.301Z,-2.97
2022-11-30T01:36:18.060Z,-3.00
2022-11-30T01:38:51.344Z,-3.06
2022-11-30T01:41:23.563Z,-3.07
2022-11-30T01:44:19.778Z,-3.08
2022-11-30T01:47:08.972Z,-3.06
2022-11-30T01:49:41.557Z,-3.06
2022-11-30T01:52:13.853Z,-3.07
2022-11-30T01:54:51.921Z,-3.10
2022-11-30T01:57:38.847Z,-3.11
2022-11-30T02:00:11.209Z,-3.12
2022-11-30T02:02:47.994Z,-3.13
2022-11-30T02:05:18.207Z,-3.14
2022-11-30T02:07:46.475Z,-3.16
2022-11-30T02:10:18.214Z,-3.17
2022-11-30T02:13:08.244Z,-3.16
2022-11-30T02:16:08.436Z,-3.14
2022-11-30T02:19:06.392Z,-3.12
2022-11-30T02:21:46.422Z,-3.09
2022-11-30T02:24:52.151Z,-3.06
2022-11-30T02:27:43.882Z,-3.03
2022-11-30T02:30:16.951Z,-3.00
2022-11-30T02:32:51.882Z,-2.98
2022-11-30T02:35:25.135Z,-2.99
2022-11-30T02:37:56.380Z,-2.99
2022-11-30T02:40:24.530Z,-3.02
2022-11-30T02:42:55.954Z,-3.03
2022-11-30T02:45:49.195Z,-3.04
2022-11-30T02:48:24.073Z,-3.06
2022-11-30T02:50:57.819Z,-3.08
2022-11-30T02:53:26.274Z,-3.07
2022-11-30T02:55:54.863Z,-3.06
2022-11-30T02:58:22.946Z,-3.03
2022-11-30T03:00:50.930Z,-2.97
2022-11-30T03:03:18.897Z,-2.92
2022-11-30T03:05:48.092Z,-2.87
2022-11-30T03:08:16.004Z,-2.84
2022-11-30T03:10:44.059Z,-2.83
2022-11-30T03:13:12.282Z,-2.85
2022-11-30T03:15:40.294Z,-2.87
2022-11-30T03:18:08.277Z,-2.88
2022-11-30T03:20:43.543Z,-2.91
2022-11-30T03:23:11.817Z,-2.94
2022-11-30T03:25:39.782Z,-2.96
2022-11-30T03:28:08.058Z,-2.96
2022-11-30T03:30:36.060Z,-2.95
2022-11-30T03:33:05.298Z,-2.92
2022-11-30T03:35:33.283Z,-2.90
2022-11-30T03:38:03.474Z,-2.87
2022-11-30T03:40:31.488Z,-2.80
2022-11-30T03:43:00.003Z,-2.75
2022-11-30T03:45:28.142Z,-2.77
2022-11-30T03:47:56.387Z,-2.82
2022-11-30T03:50:24.338Z,-2.87
2022-11-30T03:52:52.347Z,-2.90
2022-11-30T03:55:20.231Z,-2.91
2022-11-30T03:57:48.145Z,-2.96
2022-11-30T04:00:18.130Z,-2.98
2022-11-30T04:02:47.277Z,-2.99
2022-11-30T04:05:15.371Z,-2.95
2022-11-30T04:07:43.528Z,-2.95
2022-11-30T04:10:11.783Z,-3.00
2022-11-30T04:12:39.793Z,-2.99
2022-11-30T04:15:09.147Z,-3.03
2022-11-30T04:17:37.084Z,-3.06
2022-11-30T04:20:05.872Z,-3.08
2022-11-30T04:22:34.104Z,-3.07
2022-11-30T04:25:02.043Z,-3.05
2022-11-30T04:27:30.014Z,-3.02
2022-11-30T04:29:57.989Z,-2.99
2022-11-30T04:32:25.949Z,-2.96
2022-11-30T04:34:55.294Z,-2.93
2022-11-30T04:37:23.199Z,-2.90
2022-11-30T04:39:51.275Z,-2.89
2022-11-30T04:42:19.328Z,-2.92
2022-11-30T04:44:47.506Z,-2.95
2022-11-30T04:47:15.852Z,-2.94
2022-11-30T04:49:43.868Z,-2.97
2022-11-30T04:52:12.833Z,-2.97
2022-11-30T04:54:40.773Z,-2.96
2022-11-30T04:57:09.297Z,-2.93
2022-11-30T04:59:37.437Z,-2.88
2022-11-30T05:02:05.491Z,-2.81
2022-11-30T05:04:33.659Z,-2.75
2022-11-30T05:07:01.627Z,-2.72
2022-11-30T05:09:29.602Z,-2.66
2022-11-30T05:11:57.627Z,-2.65
2022-11-30T05:14:27.199Z,-2.65
2022-11-30T05:16:55.185Z,-2.63
2022-11-30T05:19:23.089Z,-2.63
2022-11-30T05:21:51.113Z,-2.65
2022-11-30T05:24:19.972Z,-2.68
2022-11-30T05:26:47.902Z,-2.63
2022-11-30T05:29:15.844Z,-2.59
2022-11-30T05:31:43.895Z,-2.51
2022-11-30T05:34:12.098Z,-2.46
2022-11-30T05:36:40.144Z,-2.42
2022-11-30T05:39:08.621Z,-2.37
2022-11-30T05:41:37.639Z,-2.34
2022-11-30T05:44:06.877Z,-2.35
2022-11-30T05:46:38.327Z,-2.39
2022-11-30T05:49:08.770Z,-2.45
2022-11-30T05:51:36.769Z,-2.51
2022-11-30T05:54:04.867Z,-2.57
2022-11-30T05:56:33.156Z,-2.62
2022-11-30T05:59:01.135Z,-2.63
2022-11-30T06:01:30.089Z,-2.62
2022-11-30T06:03:58.209Z,-2.62
2022-11-30T06:06:26.236Z,-2.59
2022-11-30T06:08:54.622Z,-2.61
2022-11-30T06:11:22.671Z,-2.58
2022-11-30T06:13:50.739Z,-2.55
2022-11-30T06:16:19.051Z,-2.54
2022-11-30T06:18:47.214Z,-2.52
2022-11-30T06:21:19.636Z,-2.53
2022-11-30T06:23:50.774Z,-2.54
2022-11-30T06:26:19.336Z,-2.61
2022-11-30T06:28:48.868Z,-2.57
2022-11-30T06:31:18.430Z,-2.52
2022-11-30T06:33:46.396Z,-2.45
2022-11-30T06:36:14.454Z,-2.32
2022-11-30T06:38:42.921Z,-2.18
2022-11-30T06:41:12.622Z,-2.06
2022-11-30T06:43:41.188Z,-1.97
2022-11-30T06:46:09.722Z,-1.89
2022-11-30T06:48:38.559Z,-1.87
2022-11-30T06:51:09.940Z,-1.86
2022-11-30T06:53:38.313Z,-1.78
2022-11-30T06:56:10.386Z,-1.77
2022-11-30T06:58:40.174Z,-1.77
2022-11-30T07:01:15.436Z,-1.71
2022-11-30T07:03:44.670Z,-1.65
2022-11-30T07:06:14.176Z,-1.70
2022-11-30T07:08:43.446Z,-1.73
2022-11-30T07:11:12.813Z,-1.70
2022-11-30T07:13:41.120Z,-1.77
2022-11-30T07:16:11.572Z,-1.74
2022-11-30T07:18:42.693Z,-1.63
2022-11-30T07:21:12.658Z,-1.63
2022-11-30T07:23:58.983Z,-1.56
2022-11-30T07:26:28.978Z,-1.48
2022-11-30T07:28:59.146Z,-1.46
2022-11-30T07:31:29.943Z,-1.50
2022-11-30T07:33:59.547Z,-1.49
2022-11-30T07:36:27.995Z,-1.44
2022-11-30T07:38:56.057Z,-1.36
2022-11-30T07:41:26.332Z,-1.22
2022-11-30T07:43:55.818Z,-1.18
2022-11-30T07:46:24.000Z,-1.19
2022-11-30T07:48:53.446Z,-1.18
2022-11-30T07:51:22.999Z,-1.18
2022-11-30T07:53:51.563Z,-1.07
2022-11-30T07:56:20.858Z,-0.97
2022-11-30T07:58:58.185Z,-0.98
2022-11-30T08:01:29.274Z,-0.86
2022-11-30T08:04:14.345Z,-0.74
2022-11-30T08:06:42.849Z,-0.64
2022-11-30T08:09:14.266Z,-0.45
2022-11-30T08:11:46.055Z,-0.35
2022-11-30T08:14:14.088Z,-0.45
2022-11-30T08:16:44.302Z,-0.36
2022-11-30T08:19:12.292Z,-0.14
2022-11-30T08:21:41.125Z,-0.07
2022-11-30T08:24:11.963Z,0.13
2022-11-30T08:26:40.310Z,0.22
2022-11-30T08:29:11.084Z,0.40
2022-11-30T08:31:39.768Z,0.55
2022-11-30T08:34:10.751Z,0.64
2022-11-30T08:36:40.665Z,0.73
2022-11-30T08:39:09.290Z,0.69
2022-11-30T08:41:39.281Z,0.80
2022-11-30T08:44:07.496Z,0.81
2022-11-30T08:46:51.656Z,0.87
2022-11-30T08:52:19.170Z,0.88
2022-11-30T08:54:48.592Z,0.98
2022-11-30T08:57:19.736Z,0.92
2022-11-30T08:59:48.122Z,0.97
2022-11-30T09:02:19.912Z,1.10
2022-11-30T09:04:51.233Z,1.09
2022-11-30T09:07:20.226Z,1.18
2022-11-30T09:09:49.981Z,1.17
2022-11-30T09:12:17.979Z,1.14
2022-11-30T09:14:53.995Z,1.21
2022-11-30T09:17:25.717Z,1.24
2022-11-30T09:19:55.133Z,1.32
2022-11-30T09:22:23.848Z,1.36
2022-11-30T09:24:51.976Z,1.39
2022-11-30T09:27:22.066Z,1.29
2022-11-30T09:29:51.482Z,1.39
2022-11-30T09:32:19.541Z,1.47
2022-11-30T09:34:50.608Z,1.56
2022-11-30T09:37:20.264Z,1.70
2022-11-30T09:39:48.422Z,1.73
2022-11-30T09:42:29.408Z,1.84
2022-11-30T09:45:20.721Z,1.80
2022-11-30T09:48:03.879Z,1.84
2022-11-30T09:50:39.146Z,1.64
2022-11-30T09:53:11.997Z,1.88
2022-11-30T09:55:44.883Z,1.98
2022-11-30T09:58:29.963Z,2.00
2022-11-30T10:01:03.661Z,2.14
2022-11-30T10:03:36.594Z,2.32
2022-11-30T10:06:21.079Z,2.46
2022-11-30T10:09:03.484Z,2.34
2022-11-30T10:12:04.669Z,2.51
2022-11-30T10:14:48.172Z,2.39
2022-11-30T10:17:16.500Z,2.50
2022-11-30T10:20:15.547Z,2.54
2022-11-30T10:23:19.749Z,2.60
2022-11-30T10:25:56.182Z,2.78
2022-11-30T10:28:47.934Z,2.91
2022-11-30T10:31:39.512Z,3.02
2022-11-30T10:34:35.795Z,3.16
2022-11-30T10:37:12.405Z,3.16
2022-11-30T10:39:56.458Z,3.23
2022-11-30T10:42:50.761Z,3.21
2022-11-30T10:45:24.423Z,3.27
2022-11-30T10:48:21.523Z,3.43
2022-11-30T10:50:52.437Z,3.35
2022-11-30T10:53:22.521Z,3.35
2022-11-30T10:56:04.455Z,3.43
2022-11-30T10:58:41.273Z,3.37
2022-11-30T11:01:28.963Z,3.49
2022-11-30T11:04:17.805Z,3.56
2022-11-30T11:06:58.492Z,3.64
2022-11-30T11:09:27.518Z,3.68
2022-11-30T11:12:21.711Z,3.71
2022-11-30T11:15:09.500Z,3.57
2022-11-30T11:17:37.691Z,3.64
2022-11-30T11:20:31.306Z,3.67
2022-11-30T11:22:59.862Z,3.77
2022-11-30T11:25:39.339Z,3.87
2022-11-30T11:28:18.878Z,3.87
2022-11-30T11:30:47.083Z,3.90
2022-11-30T11:33:24.141Z,4.00
2022-11-30T11:35:54.960Z,4.11
2022-11-30T11:38:41.770Z,4.15
2022-11-30T11:41:35.202Z,4.24
2022-11-30T11:44:22.670Z,4.42
2022-11-30T11:46:57.808Z,4.50
2022-11-30T11:49:29.222Z,4.71
2022-11-30T11:52:10.856Z,4.88
2022-11-30T11:54:47.544Z,4.94
2022-11-30T11:57:20.088Z,5.19
2022-11-30T11:59:51.613Z,5.37
2022-11-30T12:03:04.770Z,5.46
2022-11-30T12:05:54.198Z,5.55
2022-11-30T12:08:28.191Z,5.64
2022-11-30T12:11:26.852Z,5.64
2022-11-30T12:13:55.452Z,5.66
2022-11-30T12:16:24.703Z,5.72
2022-11-30T12:19:08.151Z,5.68
2022-11-30T12:21:52.287Z,5.74
2022-11-30T12:24:28.737Z,5.77
2022-11-30T12:27:24.214Z,5.70
2022-11-30T12:29:52.590Z,5.78
2022-11-30T12:32:27.209Z,5.63
2022-11-30T12:35:10.760Z,5.45
2022-11-30T12:38:10.240Z,5.52
2022-11-30T12:40:53.961Z,5.39
2022-11-30T12:43:34.114Z,5.46
2022-11-30T12:46:15.556Z,5.52
2022-11-30T12:49:12.091Z,5.60
2022-11-30T12:52:07.891Z,5.58
2022-11-30T12:54:56.740Z,5.67
2022-11-30T12:57:42.340Z,5.66
2022-11-30T13:00:19.086Z,5.70
2022-11-30T13:03:04.836Z,5.73
2022-11-30T13:05:58.554Z,5.71
2022-11-30T13:08:34.960Z,5.63
2022-11-30T13:11:08.586Z,5.59
2022-11-30T13:13:43.412Z,5.55
2022-11-30T13:16:11.894Z,5.48
2022-11-30T13:18:42.487Z,5.33
2022-11-30T13:21:30.704Z,5.27
2022-11-30T13:24:10.104Z,5.22
2022-11-30T13:27:08.081Z,5.19
2022-11-30T13:30:03.152Z,5.15
2022-11-30T13:32:57.573Z,5.14
2022-11-30T13:35:29.440Z,5.12
2022-11-30T13:38:36.494Z,5.07
2022-11-30T13:41:09.378Z,5.10
2022-11-30T13:43:45.796Z,5.12
2022-11-30T13:46:21.034Z,5.12
2022-11-30T13:48:49.897Z,5.12
2022-11-30T13:51:36.703Z,5.08
2022-11-30T13:54:41.615Z,5.04
2022-11-30T13:57:35.760Z,4.95
2022-11-30T14:00:33.058Z,4.79
2022-11-30T14:06:56.606Z,4.76
2022-11-30T14:09:40.032Z,4.70
2022-11-30T14:12:35.033Z,4.65
2022-11-30T14:15:38.472Z,4.66
2022-11-30T14:18:11.848Z,4.57
2022-11-30T14:21:15.003Z,4.57
2022-11-30T14:23:50.540Z,4.56
2022-11-30T14:26:28.333Z,4.51
2022-11-30T14:29:02.458Z,4.53
2022-11-30T14:32:12.539Z,4.49
2022-11-30T14:34:46.506Z,4.36
2022-11-30T14:37:27.560Z,4.30
2022-11-30T14:39:56.895Z,4.29
2022-11-30T14:42:30.540Z,4.25
2022-11-30T14:45:00.168Z,4.18
2022-11-30T14:47:34.881Z,4.14
2022-11-30T14:50:06.304Z,4.11
2022-11-30T14:52:54.494Z,4.08
2022-11-30T14:55:34.296Z,4.06
2022-11-30T14:58:23.505Z,4.05
2022-11-30T15:00:52.067Z,4.03
2022-11-30T15:03:38.898Z,4.01
2022-11-30T15:06:08.788Z,3.98
2022-11-30T15:08:48.360Z,3.96
2022-11-30T15:11:17.913Z,3.92
2022-11-30T15:13:55.994Z,3.89
2022-11-30T15:16:25.968Z,3.86
2022-11-30T15:18:56.654Z,3.82
2022-11-30T15:21:28.821Z,3.79
2022-11-30T15:24:01.595Z,3.77
2022-11-30T15:26:48.921Z,3.76
2022-11-30T15:29:26.567Z,3.78
2022-11-30T15:31:58.495Z,3.78
2022-11-30T15:34:57.650Z,3.77
2022-11-30T15:37:38.573Z,3.74
2022-11-30T15:40:09.977Z,3.68
2022-11-30T15:42:40.707Z,3.61
2022-11-30T15:45:31.791Z,3.54
2022-11-30T15:48:02.765Z,3.49
2022-11-30T15:50:37.342Z,3.47
2022-11-30T15:53:23.224Z,3.44
2022-11-30T15:55:55.408Z,3.40
2022-11-30T15:58:45.900Z,3.38
2022-11-30T16:01:25.194Z,3.35
2022-11-30T16:03:56.600Z,3.30
2022-11-30T16:06:28.165Z,3.27
2022-11-30T16:08:57.329Z,3.24
2022-11-30T16:11:25.847Z,3.18
2022-11-30T16:13:57.364Z,3.15
2022-11-30T16:16:31.115Z,3.09
2022-11-30T16:18:59.503Z,3.01
2022-11-30T16:21:28.552Z,2.94
2022-11-30T16:23:58.525Z,2.87
2022-11-30T16:29:15.846Z,2.75
2022-11-30T16:31:46.475Z,2.70
2022-11-30T16:34:14.609Z,2.67
2022-11-30T16:36:42.748Z,2.66
2022-11-30T16:39:13.439Z,2.65
2022-11-30T16:41:42.505Z,2.62
2022-11-30T16:44:14.486Z,2.57
2022-11-30T16:46:42.701Z,2.54
2022-11-30T16:49:11.185Z,2.49
2022-11-30T16:51:41.956Z,2.44
2022-11-30T16:54:16.723Z,2.38
2022-11-30T16:56:47.683Z,2.30
2022-11-30T16:59:16.975Z,2.22
2022-11-30T17:01:53.572Z,2.14
2022-11-30T17:04:23.279Z,2.08
2022-11-30T17:06:57.175Z,2.02
2022-11-30T17:09:31.146Z,1.97
2022-11-30T17:11:59.263Z,1.94
2022-11-30T17:14:28.135Z,1.90
2022-11-30T17:16:56.466Z,1.87
2022-11-30T17:19:27.553Z,1.84
2022-11-30T17:21:56.270Z,1.80
2022-11-30T17:24:24.647Z,1.75
2022-11-30T17:27:00.956Z,1.70
2022-11-30T17:29:30.968Z,1.64
2022-11-30T17:32:00.400Z,1.58
2022-11-30T17:34:28.557Z,1.52
2022-11-30T17:36:57.286Z,1.47
2022-11-30T17:39:26.535Z,1.43
2022-11-30T17:41:55.127Z,1.40
2022-11-30T17:44:25.986Z,1.39
2022-11-30T17:46:54.340Z,1.37
2022-11-30T17:49:23.686Z,1.36
2022-11-30T17:51:51.828Z,1.34
2022-11-30T17:54:21.568Z,1.32
2022-11-30T17:56:50.181Z,1.30
2022-11-30T17:59:19.481Z,1.27
2022-11-30T18:01:48.402Z,1.24
2022-11-30T18:04:18.733Z,1.21
2022-11-30T18:06:46.793Z,1.19
2022-11-30T18:09:14.971Z,1.20
2022-11-30T18:11:42.991Z,1.21
2022-11-30T18:14:11.653Z,1.24
2022-11-30T18:16:42.148Z,1.26
2022-11-30T18:19:14.801Z,1.27
2022-11-30T18:21:46.171Z,1.28
2022-11-30T18:24:14.515Z,1.26
2022-11-30T18:26:42.519Z,1.22
2022-11-30T18:29:11.179Z,1.19
2022-11-30T18:31:39.425Z,1.14
2022-11-30T18:34:07.763Z,1.12
2022-11-30T18:36:36.813Z,1.11
2022-11-30T18:39:05.539Z,1.11
2022-11-30T18:41:33.638Z,1.11
2022-11-30T18:44:01.739Z,1.12
2022-11-30T18:46:33.337Z,1.11
2022-11-30T18:49:04.154Z,1.10
2022-11-30T18:51:32.965Z,1.09
2022-11-30T18:54:05.112Z,1.05
2022-11-30T18:56:36.938Z,1.00
2022-11-30T18:59:09.102Z,0.95
2022-11-30T19:01:37.484Z,0.88
2022-11-30T19:04:08.676Z,0.84
2022-11-30T19:06:40.520Z,0.81
2022-11-30T19:09:12.173Z,0.77
2022-11-30T19:11:41.701Z,0.77
2022-11-30T19:14:14.247Z,0.76
2022-11-30T19:16:46.008Z,0.74
2022-11-30T19:19:15.489Z,0.71
2022-11-30T19:21:47.383Z,0.67
2022-11-30T19:24:17.474Z,0.63
2022-11-30T19:26:46.294Z,0.59
2022-11-30T19:29:15.160Z,0.55
2022-11-30T19:31:43.892Z,0.49
2022-11-30T19:34:13.161Z,0.43
2022-11-30T19:36:42.007Z,0.37
2022-11-30T19:39:11.280Z,0.31
2022-11-30T19:41:39.375Z,0.27
2022-11-30T19:44:13.524Z,0.25
2022-11-30T19:46:42.001Z,0.25
2022-11-30T19:49:11.732Z,0.26
2022-11-30T19:51:43.390Z,0.27
2022-11-30T19:54:11.600Z,0.27
2022-11-30T19:56:41.950Z,0.25
2022-11-30T19:59:10.497Z,0.22
2022-11-30T20:01:39.104Z,0.19
2022-11-30T20:04:07.444Z,0.15
2022-11-30T20:06:37.685Z,0.09
2022-11-30T20:09:10.430Z,0.04
2022-11-30T20:11:38.834Z,-0.02
2022-11-30T20:14:07.181Z,-0.07
2022-11-30T20:16:36.094Z,-0.09
2022-11-30T20:19:04.332Z,-0.12
2022-11-30T20:21:34.866Z,-0.12
2022-11-30T20:24:06.928Z,-0.11
2022-11-30T20:26:38.949Z,-0.08
2022-11-30T20:29:15.136Z,-0.08
2022-11-30T20:31:45.376Z,-0.09
2022-11-30T20:34:17.219Z,-0.11
2022-11-30T20:36:45.572Z,-0.13
2022-11-30T20:39:15.212Z,-0.17
2022-11-30T20:41:43.976Z,-0.22
2022-11-30T20:44:16.524Z,-0.26
2022-11-30T20:46:44.611Z,-0.30
2022-11-30T20:49:17.775Z,-0.33
2022-11-30T20:51:46.931Z,-0.35
2022-11-30T20:54:16.631Z,-0.35
2022-11-30T20:56:47.767Z,-0.32
2022-11-30T20:59:23.735Z,-0.30
2022-11-30T21:01:54.446Z,-0.29
2022-11-30T21:04:24.728Z,-0.30
2022-11-30T21:06:54.351Z,-0.32
2022-11-30T21:09:22.547Z,-0.36
2022-11-30T21:11:50.551Z,-0.41
2022-11-30T21:14:18.653Z,-0.45
2022-11-30T21:16:48.282Z,-0.50
2022-11-30T21:19:16.783Z,-0.56
2022-11-30T21:21:45.001Z,-0.59
2022-11-30T21:24:13.114Z,-0.61
2022-11-30T21:26:43.451Z,-0.62
2022-11-30T21:29:14.419Z,-0.61
2022-11-30T21:31:43.354Z,-0.59
2022-11-30T21:34:12.267Z,-0.63
2022-11-30T21:36:40.827Z,-0.66
2022-11-30T21:39:09.088Z,-0.68
2022-11-30T21:41:39.359Z,-0.71
2022-11-30T21:44:10.621Z,-0.75
2022-11-30T21:46:40.272Z,-0.79
2022-11-30T21:49:10.115Z,-0.81
2022-11-30T21:51:38.338Z,-0.83
2022-11-30T21:54:10.028Z,-0.84
2022-11-30T21:56:40.592Z,-0.83
2022-11-30T21:59:09.896Z,-0.82
2022-11-30T22:01:42.707Z,-0.83
2022-11-30T22:04:12.310Z,-0.82
2022-11-30T22:06:43.389Z,-0.81
2022-11-30T22:09:14.344Z,-0.82
2022-11-30T22:11:45.111Z,-0.84
2022-11-30T22:14:16.051Z,-0.87
2022-11-30T22:16:45.033Z,-0.90
2022-11-30T22:19:15.496Z,-0.94
2022-11-30T22:21:49.425Z,-0.97
2022-11-30T22:24:18.642Z,-0.97
2022-11-30T22:26:49.313Z,-0.97
2022-11-30T22:29:22.559Z,-0.96
2022-11-30T22:31:53.370Z,-0.93
2022-11-30T22:34:21.480Z,-0.92
2022-11-30T22:36:50.693Z,-0.86
2022-11-30T22:39:21.398Z,-0.84
2022-11-30T22:41:55.251Z,-0.85
2022-11-30T22:44:25.749Z,-0.87
2022-11-30T22:46:53.884Z,-0.90
2022-11-30T22:49:22.367Z,-0.94
2022-11-30T22:51:51.138Z,-0.98
2022-11-30T22:54:19.270Z,-1.01
2022-11-30T22:56:47.401Z,-1.04
2022-11-30T22:59:15.929Z,-1.04
2022-11-30T23:01:49.608Z,-1.04
2022-11-30T23:04:20.422Z,-1.03
2022-11-30T23:06:49.877Z,-1.00
2022-11-30T23:09:21.765Z,-0.99
2022-11-30T23:11:51.315Z,-0.99
2022-11-30T23:14:20.001Z,-1.01
2022-11-30T23:16:48.255Z,-1.04
2022-11-30T23:19:16.700Z,-1.07
2022-11-30T23:21:46.010Z,-1.10
2022-11-30T23:24:20.307Z,-1.14
2022-11-30T23:26:49.441Z,-1.18
2022-11-30T23:29:18.172Z,-1.21
2022-11-30T23:31:47.864Z,-1.22
2022-11-30T23:34:21.394Z,-1.22
2022-11-30T23:36:50.998Z,-1.20
2022-11-30T23:39:19.939Z,-1.19
2022-11-30T23:41:49.082Z,-1.17
2022-11-30T23:44:17.343Z,-1.18
2022-11-30T23:46:45.548Z,-1.19
2022-11-30T23:49:14.388Z,-1.21
2022-11-30T23:51:43.214Z,-1.24
2022-11-30T23:54:11.403Z,-1.28
2022-11-30T23:56:39.613Z,-1.32
2022-11-30T23:59:07.826Z,-1.36
